sensor_id;sensor_type;location;lat;lon;timestamp;pressure;altitude;pressure_sealevel;temperature;humidity
59272;BME280;45043;51.068;7.026;2022-08-02T00:00:37;100734.81;;;14.80;57.04
59272;BME280;45043;51.068;7.026;2022-08-02T00:03:38;100730.28;;;14.80;57.19
59272;BME280;45043;51.068;7.026;2022-08-02T00:06:38;100732.75;;;14.82;57.64
59272;BME280;45043;51.068;7.026;2022-08-02T00:09:39;100731.53;;;14.78;57.58
59272;BME280;45043;51.068;7.026;2022-08-02T00:12:39;100719.84;;;14.72;57.52
59272;BME280;45043;51.068;7.026;2022-08-02T00:15:40;100737.72;;;14.78;57.41
59272;BME280;45043;51.068;7.026;2022-08-02T00:18:40;100744.91;;;14.78;57.57
59272;BME280;45043;51.068;7.026;2022-08-02T00:21:41;100742.66;;;14.75;57.90
59272;BME280;45043;51.068;7.026;2022-08-02T00:24:41;100736.50;;;14.74;57.82
59272;BME280;45043;51.068;7.026;2022-08-02T00:27:42;100740.84;;;14.69;57.63
59272;BME280;45043;51.068;7.026;2022-08-02T00:30:42;100740.56;;;14.52;58.09
59272;BME280;45043;51.068;7.026;2022-08-02T00:33:43;100751.06;;;14.47;58.41
59272;BME280;45043;51.068;7.026;2022-08-02T00:36:43;100744.09;;;14.39;59.46
59272;BME280;45043;51.068;7.026;2022-08-02T00:39:43;100742.06;;;14.41;59.55
59272;BME280;45043;51.068;7.026;2022-08-02T00:42:44;100738.00;;;14.32;59.33
59272;BME280;45043;51.068;7.026;2022-08-02T00:45:44;100733.13;;;14.22;59.76
59272;BME280;45043;51.068;7.026;2022-08-02T00:48:45;100734.78;;;14.17;60.10
59272;BME280;45043;51.068;7.026;2022-08-02T00:51:46;100729.91;;;14.07;60.25
59272;BME280;45043;51.068;7.026;2022-08-02T00:54:46;100720.88;;;14.01;61.01
59272;BME280;45043;51.068;7.026;2022-08-02T00:57:47;100725.41;;;14.07;61.06
59272;BME280;45043;51.068;7.026;2022-08-02T01:00:48;100710.22;;;14.01;60.90
59272;BME280;45043;51.068;7.026;2022-08-02T01:03:48;100725.41;;;14.07;61.53
59272;BME280;45043;51.068;7.026;2022-08-02T01:06:48;100716.38;;;14.02;61.53
59272;BME280;45043;51.068;7.026;2022-08-02T01:09:49;100727.06;;;14.02;61.74
59272;BME280;45043;51.068;7.026;2022-08-02T01:12:49;100723.97;;;13.98;61.69
59272;BME280;45043;51.068;7.026;2022-08-02T01:16:04;100719.69;;;13.97;61.53
59272;BME280;45043;51.068;7.026;2022-08-02T01:23:30;100721.16;;;13.93;61.60
59272;BME280;45043;51.068;7.026;2022-08-02T01:26:46;100705.38;;;13.85;61.58
59272;BME280;45043;51.068;7.026;2022-08-02T01:29:44;100712.88;;;14.01;61.38
59272;BME280;45043;51.068;7.026;2022-08-02T01:32:50;100712.03;;;14.07;61.04
59272;BME280;45043;51.068;7.026;2022-08-02T01:35:55;100709.09;;;14.16;60.82
59272;BME280;45043;51.068;7.026;2022-08-02T01:38:56;100714.84;;;14.19;60.89
59272;BME280;45043;51.068;7.026;2022-08-02T01:41:58;100714.03;;;14.19;60.28
59272;BME280;45043;51.068;7.026;2022-08-02T01:45:00;100713.66;;;14.08;60.02
59272;BME280;45043;51.068;7.026;2022-08-02T01:48:02;100706.94;;;13.99;60.12
59272;BME280;45043;51.068;7.026;2022-08-02T01:51:05;100711.09;;;13.95;60.41
59272;BME280;45043;51.068;7.026;2022-08-02T01:54:12;100706.31;;;13.97;60.31
59272;BME280;45043;51.068;7.026;2022-08-02T01:57:14;100713.31;;;13.98;60.46
59272;BME280;45043;51.068;7.026;2022-08-02T02:00:17;100708.19;;;13.97;60.44
59272;BME280;45043;51.068;7.026;2022-08-02T02:03:21;100707.38;;;13.96;60.49
59272;BME280;45043;51.068;7.026;2022-08-02T02:06:24;100700.81;;;13.92;60.73
59272;BME280;45043;51.068;7.026;2022-08-02T02:09:26;100691.75;;;13.93;60.98
59272;BME280;45043;51.068;7.026;2022-08-02T02:12:30;100694.84;;;13.90;60.90
59272;BME280;45043;51.068;7.026;2022-08-02T02:15:34;100700.03;;;13.85;61.03
59272;BME280;45043;51.068;7.026;2022-08-02T02:18:40;100698.00;;;13.80;60.99
59272;BME280;45043;51.068;7.026;2022-08-02T02:21:46;100696.78;;;13.70;60.97
59272;BME280;45043;51.068;7.026;2022-08-02T02:24:47;100682.00;;;13.60;61.02
59272;BME280;45043;51.068;7.026;2022-08-02T02:27:58;100687.56;;;13.66;61.27
59272;BME280;45043;51.068;7.026;2022-08-02T02:31:04;100687.75;;;13.71;61.44
59272;BME280;45043;51.068;7.026;2022-08-02T02:34:12;100685.47;;;13.68;61.33
59272;BME280;45043;51.068;7.026;2022-08-02T02:37:19;100686.91;;;13.70;61.77
59272;BME280;45043;51.068;7.026;2022-08-02T02:40:21;100679.53;;;13.72;61.74
59272;BME280;45043;51.068;7.026;2022-08-02T02:43:24;100678.53;;;13.73;61.50
59272;BME280;45043;51.068;7.026;2022-08-02T02:46:28;100678.53;;;13.73;61.63
59272;BME280;45043;51.068;7.026;2022-08-02T02:49:32;100684.88;;;13.72;61.78
59272;BME280;45043;51.068;7.026;2022-08-02T02:52:35;100678.09;;;13.70;61.88
59272;BME280;45043;51.068;7.026;2022-08-02T02:55:37;100686.09;;;13.70;61.58
59272;BME280;45043;51.068;7.026;2022-08-02T02:58:42;100681.78;;;13.69;61.83
59272;BME280;45043;51.068;7.026;2022-08-02T03:01:43;100680.13;;;13.68;61.76
59272;BME280;45043;51.068;7.026;2022-08-02T03:04:44;100679.94;;;13.69;61.84
59272;BME280;45043;51.068;7.026;2022-08-02T03:07:45;100670.31;;;13.61;62.00
59272;BME280;45043;51.068;7.026;2022-08-02T03:10:46;100676.25;;;13.63;61.90
59272;BME280;45043;51.068;7.026;2022-08-02T03:13:47;100669.72;;;13.59;61.99
59272;BME280;45043;51.068;7.026;2022-08-02T03:16:50;100664.38;;;13.59;61.99
59272;BME280;45043;51.068;7.026;2022-08-02T03:19:51;100671.56;;;13.59;62.02
59272;BME280;45043;51.068;7.026;2022-08-02T03:22:51;100667.66;;;13.61;62.04
59272;BME280;45043;51.068;7.026;2022-08-02T03:25:51;100668.25;;;13.63;62.26
59272;BME280;45043;51.068;7.026;2022-08-02T03:28:52;100658.63;;;13.62;62.21
59272;BME280;45043;51.068;7.026;2022-08-02T03:31:52;100661.06;;;13.71;62.27
59272;BME280;45043;51.068;7.026;2022-08-02T03:35:09;100661.06;;;13.64;62.56
59272;BME280;45043;51.068;7.026;2022-08-02T03:38:13;100669.47;;;13.68;62.52
59272;BME280;45043;51.068;7.026;2022-08-02T03:41:17;100661.25;;;13.69;62.28
59272;BME280;45043;51.068;7.026;2022-08-02T03:44:20;100659.00;;;13.73;62.30
59272;BME280;45043;51.068;7.026;2022-08-02T03:47:29;100655.31;;;13.74;62.66
59272;BME280;45043;51.068;7.026;2022-08-02T03:50:36;100670.09;;;13.76;62.33
59272;BME280;45043;51.068;7.026;2022-08-02T03:53:40;100665.56;;;13.77;62.59
59272;BME280;45043;51.068;7.026;2022-08-02T03:56:46;100666.81;;;13.74;62.29
59272;BME280;45043;51.068;7.026;2022-08-02T03:59:53;100663.94;;;13.69;62.07
59272;BME280;45043;51.068;7.026;2022-08-02T04:02:56;100668.88;;;13.66;62.12
59272;BME280;45043;51.068;7.026;2022-08-02T04:05:59;100666.00;;;13.60;62.25
59272;BME280;45043;51.068;7.026;2022-08-02T04:09:01;100666.88;;;13.54;62.26
59272;BME280;45043;51.068;7.026;2022-08-02T04:12:02;100671.00;;;13.50;62.21
59272;BME280;45043;51.068;7.026;2022-08-02T04:15:05;100676.91;;;13.52;62.15
59272;BME280;45043;51.068;7.026;2022-08-02T04:18:14;100668.84;;;13.72;62.09
59272;BME280;45043;51.068;7.026;2022-08-02T04:21:16;100681.19;;;14.12;61.30
59272;BME280;45043;51.068;7.026;2022-08-02T04:24:27;100670.28;;;14.13;60.73
59272;BME280;45043;51.068;7.026;2022-08-02T04:27:34;100678.13;;;14.08;60.76
59272;BME280;45043;51.068;7.026;2022-08-02T04:30:38;100677.91;;;14.09;61.08
59272;BME280;45043;51.068;7.026;2022-08-02T04:33:45;100685.88;;;14.16;61.00
59272;BME280;45043;51.068;7.026;2022-08-02T04:36:46;100689.16;;;14.18;61.09
59272;BME280;45043;51.068;7.026;2022-08-02T04:39:50;100685.19;;;14.27;60.80
59272;BME280;45043;51.068;7.026;2022-08-02T04:42:52;100680.03;;;14.32;60.74
59272;BME280;45043;51.068;7.026;2022-08-02T04:45:58;100689.22;;;14.43;60.51
59272;BME280;45043;51.068;7.026;2022-08-02T04:49:05;100685.06;;;14.47;60.22
59272;BME280;45043;51.068;7.026;2022-08-02T04:52:06;100683.22;;;14.48;59.83
59272;BME280;45043;51.068;7.026;2022-08-02T04:55:07;100686.41;;;14.56;59.84
59272;BME280;45043;51.068;7.026;2022-08-02T04:58:08;100679.44;;;14.62;60.08
59272;BME280;45043;51.068;7.026;2022-08-02T05:01:11;100685.16;;;14.66;59.92
59272;BME280;45043;51.068;7.026;2022-08-02T05:04:12;100681.59;;;14.72;59.42
59272;BME280;45043;51.068;7.026;2022-08-02T05:07:16;100674.00;;;14.69;59.70
59272;BME280;45043;51.068;7.026;2022-08-02T05:10:23;100684.66;;;14.75;59.70
59272;BME280;45043;51.068;7.026;2022-08-02T05:13:26;100687.94;;;14.77;59.41
59272;BME280;45043;51.068;7.026;2022-08-02T05:16:27;100689.56;;;14.78;59.32
59272;BME280;45043;51.068;7.026;2022-08-02T05:19:30;100691.56;;;14.83;59.61
59272;BME280;45043;51.068;7.026;2022-08-02T05:22:37;100697.91;;;14.89;59.34
59272;BME280;45043;51.068;7.026;2022-08-02T05:25:38;100689.47;;;14.92;59.13
59272;BME280;45043;51.068;7.026;2022-08-02T05:28:44;100698.63;;;15.02;58.82
59272;BME280;45043;51.068;7.026;2022-08-02T05:31:47;100685.78;;;15.11;59.15
59272;BME280;45043;51.068;7.026;2022-08-02T05:34:51;100682.56;;;15.21;58.78
59272;BME280;45043;51.068;7.026;2022-08-02T05:37:55;100688.66;;;15.28;58.61
59272;BME280;45043;51.068;7.026;2022-08-02T05:40:57;100692.69;;;15.37;58.30
59272;BME280;45043;51.068;7.026;2022-08-02T05:44:01;100691.34;;;15.46;58.32
59272;BME280;45043;51.068;7.026;2022-08-02T05:47:07;100684.69;;;15.56;58.07
59272;BME280;45043;51.068;7.026;2022-08-02T05:50:09;100694.03;;;15.65;57.95
59272;BME280;45043;51.068;7.026;2022-08-02T05:56:33;100690.59;;;15.76;57.73
59272;BME280;45043;51.068;7.026;2022-08-02T06:06:04;100688.59;;;15.90;57.33
59272;BME280;45043;51.068;7.026;2022-08-02T06:09:10;100697.13;;;15.98;56.94
59272;BME280;45043;51.068;7.026;2022-08-02T06:12:18;100690.28;;;16.02;56.62
59272;BME280;45043;51.068;7.026;2022-08-02T06:15:20;100693.91;;;16.08;56.99
59272;BME280;45043;51.068;7.026;2022-08-02T06:18:20;100701.63;;;16.16;56.42
59272;BME280;45043;51.068;7.026;2022-08-02T06:21:24;100704.19;;;16.23;55.88
59272;BME280;45043;51.068;7.026;2022-08-02T06:24:25;100700.47;;;16.24;56.09
59272;BME280;45043;51.068;7.026;2022-08-02T06:27:26;100700.97;;;16.33;55.90
59272;BME280;45043;51.068;7.026;2022-08-02T06:30:28;100690.16;;;16.39;55.98
59272;BME280;45043;51.068;7.026;2022-08-02T06:33:28;100690.88;;;16.46;55.48
59272;BME280;45043;51.068;7.026;2022-08-02T06:36:51;100688.34;;;16.52;55.21
59272;BME280;45043;51.068;7.026;2022-08-02T06:46:12;100668.88;;;16.80;55.06
59272;BME280;45043;51.068;7.026;2022-08-02T06:49:15;100676.00;;;16.97;54.71
59272;BME280;45043;51.068;7.026;2022-08-02T06:52:15;100675.97;;;17.09;54.42
59272;BME280;45043;51.068;7.026;2022-08-02T06:55:16;100684.66;;;17.23;54.70
59272;BME280;45043;51.068;7.026;2022-08-02T06:58:23;100689.19;;;17.34;53.93
59272;BME280;45043;51.068;7.026;2022-08-02T07:01:23;100682.72;;;17.47;53.61
59272;BME280;45043;51.068;7.026;2022-08-02T07:04:24;100685.88;;;17.56;53.89
59272;BME280;45043;51.068;7.026;2022-08-02T07:07:25;100694.16;;;17.66;53.10
59272;BME280;45043;51.068;7.026;2022-08-02T07:10:27;100690.81;;;17.76;52.71
59272;BME280;45043;51.068;7.026;2022-08-02T07:13:30;100694.53;;;17.86;52.44
59272;BME280;45043;51.068;7.026;2022-08-02T07:16:31;100688.78;;;17.94;51.92
59272;BME280;45043;51.068;7.026;2022-08-02T07:19:31;100688.09;;;17.99;51.38
59272;BME280;45043;51.068;7.026;2022-08-02T07:22:32;100688.44;;;18.19;51.13
59272;BME280;45043;51.068;7.026;2022-08-02T07:25:32;100688.31;;;18.26;50.44
59272;BME280;45043;51.068;7.026;2022-08-02T07:28:33;100684.06;;;18.30;50.59
59272;BME280;45043;51.068;7.026;2022-08-02T07:31:33;100680.56;;;18.47;50.09
59272;BME280;45043;51.068;7.026;2022-08-02T07:34:37;100682.13;;;18.59;49.46
59272;BME280;45043;51.068;7.026;2022-08-02T07:37:37;100683.13;;;18.70;49.13
59272;BME280;45043;51.068;7.026;2022-08-02T07:40:38;100686.53;;;18.82;48.61
59272;BME280;45043;51.068;7.026;2022-08-02T07:43:39;100672.66;;;18.90;48.71
59272;BME280;45043;51.068;7.026;2022-08-02T07:46:39;100688.22;;;19.05;48.61
59272;BME280;45043;51.068;7.026;2022-08-02T07:49:41;100685.00;;;19.25;48.02
59272;BME280;45043;51.068;7.026;2022-08-02T07:52:43;100672.47;;;19.36;47.78
59272;BME280;45043;51.068;7.026;2022-08-02T07:55:43;100681.22;;;19.43;47.18
59272;BME280;45043;51.068;7.026;2022-08-02T07:58:47;100686.72;;;19.53;46.51
59272;BME280;45043;51.068;7.026;2022-08-02T08:01:48;100677.06;;;19.57;46.39
59272;BME280;45043;51.068;7.026;2022-08-02T08:04:51;100673.69;;;19.67;46.36
59272;BME280;45043;51.068;7.026;2022-08-02T08:07:52;100666.84;;;19.81;45.85
59272;BME280;45043;51.068;7.026;2022-08-02T08:10:53;100669.63;;;19.92;45.43
59272;BME280;45043;51.068;7.026;2022-08-02T08:13:53;100663.78;;;20.00;45.37
59272;BME280;45043;51.068;7.026;2022-08-02T08:16:54;100657.19;;;20.13;44.95
59272;BME280;45043;51.068;7.026;2022-08-02T08:19:57;100655.44;;;20.28;44.67
59272;BME280;45043;51.068;7.026;2022-08-02T08:22:58;100663.63;;;20.39;44.44
59272;BME280;45043;51.068;7.026;2022-08-02T08:25:58;100651.28;;;20.48;43.97
59272;BME280;45043;51.068;7.026;2022-08-02T08:28:59;100657.91;;;20.67;44.28
59272;BME280;45043;51.068;7.026;2022-08-02T08:32:01;100663.72;;;20.86;43.28
59272;BME280;45043;51.068;7.026;2022-08-02T08:35:04;100652.72;;;21.03;42.79
59272;BME280;45043;51.068;7.026;2022-08-02T08:38:08;100651.47;;;21.16;41.65
59272;BME280;45043;51.068;7.026;2022-08-02T08:41:08;100649.63;;;21.31;41.05
59272;BME280;45043;51.068;7.026;2022-08-02T08:44:09;100635.59;;;21.40;41.31
59272;BME280;45043;51.068;7.026;2022-08-02T08:47:09;100643.84;;;21.65;40.95
59272;BME280;45043;51.068;7.026;2022-08-02T08:50:16;100638.16;;;21.77;40.12
59272;BME280;45043;51.068;7.026;2022-08-02T08:53:19;100649.81;;;21.88;40.01
59272;BME280;45043;51.068;7.026;2022-08-02T08:56:21;100643.63;;;21.92;40.15
59272;BME280;45043;51.068;7.026;2022-08-02T08:59:22;100649.03;;;21.97;39.85
59272;BME280;45043;51.068;7.026;2022-08-02T09:02:23;100641.19;;;22.06;39.52
59272;BME280;45043;51.068;7.026;2022-08-02T09:05:23;100639.84;;;22.09;40.05
59272;BME280;45043;51.068;7.026;2022-08-02T09:08:24;100638.78;;;22.25;39.94
59272;BME280;45043;51.068;7.026;2022-08-02T09:11:25;100642.06;;;22.37;39.32
59272;BME280;45043;51.068;7.026;2022-08-02T09:14:27;100646.91;;;22.50;40.67
59272;BME280;45043;51.068;7.026;2022-08-02T09:17:28;100642.88;;;22.48;40.81
59272;BME280;45043;51.068;7.026;2022-08-02T09:20:28;100644.47;;;22.39;41.14
59272;BME280;45043;51.068;7.026;2022-08-02T09:23:34;100635.81;;;22.32;41.63
59272;BME280;45043;51.068;7.026;2022-08-02T09:26:36;100634.75;;;22.22;41.69
59272;BME280;45043;51.068;7.026;2022-08-02T09:29:36;100628.81;;;22.15;42.23
59272;BME280;45043;51.068;7.026;2022-08-02T09:32:44;100629.84;;;22.09;42.25
59272;BME280;45043;51.068;7.026;2022-08-02T09:35:45;100632.03;;;22.07;42.34
59272;BME280;45043;51.068;7.026;2022-08-02T09:39:04;100633.09;;;22.01;42.63
59272;BME280;45043;51.068;7.026;2022-08-02T09:42:07;100623.34;;;22.00;42.35
59272;BME280;45043;51.068;7.026;2022-08-02T09:45:12;100630.09;;;21.97;42.51
59272;BME280;45043;51.068;7.026;2022-08-02T09:48:13;100620.38;;;21.96;42.36
59272;BME280;45043;51.068;7.026;2022-08-02T09:51:18;100620.09;;;21.98;42.71
59272;BME280;45043;51.068;7.026;2022-08-02T09:54:23;100622.81;;;21.98;42.99
59272;BME280;45043;51.068;7.026;2022-08-02T09:57:26;100622.81;;;21.98;42.83
59272;BME280;45043;51.068;7.026;2022-08-02T10:00:27;100626.88;;;22.00;42.59
59272;BME280;45043;51.068;7.026;2022-08-02T10:03:28;100622.81;;;21.98;42.84
59272;BME280;45043;51.068;7.026;2022-08-02T10:06:28;100617.38;;;21.98;42.57
59272;BME280;45043;51.068;7.026;2022-08-02T10:09:29;100622.81;;;21.98;42.82
59272;BME280;45043;51.068;7.026;2022-08-02T10:12:30;100620.66;;;22.00;42.69
59272;BME280;45043;51.068;7.026;2022-08-02T10:15:30;100612.53;;;22.00;42.44
59272;BME280;45043;51.068;7.026;2022-08-02T10:18:31;100615.25;;;22.00;42.55
59272;BME280;45043;51.068;7.026;2022-08-02T10:22:00;100614.97;;;21.96;42.85
59272;BME280;45043;51.068;7.026;2022-08-02T10:25:02;100613.91;;;22.13;42.21
59272;BME280;45043;51.068;7.026;2022-08-02T10:28:08;100612.56;;;22.20;42.18
59272;BME280;45043;51.068;7.026;2022-08-02T10:31:09;100609.31;;;22.18;42.31
59272;BME280;45043;51.068;7.026;2022-08-02T10:34:15;100605.50;;;22.24;42.22
59272;BME280;45043;51.068;7.026;2022-08-02T10:37:17;100595.25;;;22.26;42.78
59272;BME280;45043;51.068;7.026;2022-08-02T10:40:18;100600.63;;;22.32;42.51
59272;BME280;45043;51.068;7.026;2022-08-02T10:46:35;100606.59;;;22.29;42.59
59272;BME280;45043;51.068;7.026;2022-08-02T10:49:47;100604.44;;;22.25;42.65
59272;BME280;45043;51.068;7.026;2022-08-02T10:53:21;100586.84;;;22.23;42.46
59272;BME280;45043;51.068;7.026;2022-08-02T10:56:46;100592.53;;;22.21;42.12
59272;BME280;45043;51.068;7.026;2022-08-02T10:59:50;100582.81;;;22.25;41.96
59272;BME280;45043;51.068;7.026;2022-08-02T11:02:51;100593.06;;;22.23;42.04
59272;BME280;45043;51.068;7.026;2022-08-02T11:06:05;100579.81;;;22.22;42.29
59272;BME280;45043;51.068;7.026;2022-08-02T11:09:26;100574.16;;;22.18;42.14
59272;BME280;45043;51.068;7.026;2022-08-02T11:12:27;100579.81;;;22.22;42.23
59272;BME280;45043;51.068;7.026;2022-08-02T11:15:29;100566.00;;;22.23;41.80
59272;BME280;45043;51.068;7.026;2022-08-02T11:22:10;100566.56;;;22.20;41.94
59272;BME280;45043;51.068;7.026;2022-08-02T11:28:21;100562.78;;;22.26;42.09
59272;BME280;45043;51.068;7.026;2022-08-02T11:31:21;100565.47;;;22.26;42.36
59272;BME280;45043;51.068;7.026;2022-08-02T11:34:24;100572.50;;;22.27;42.31
59272;BME280;45043;51.068;7.026;2022-08-02T11:37:34;100558.69;;;22.24;41.88
59272;BME280;45043;51.068;7.026;2022-08-02T11:40:36;100565.22;;;22.23;42.29
59272;BME280;45043;51.068;7.026;2022-08-02T11:43:38;100559.00;;;22.22;42.32
59272;BME280;45043;51.068;7.026;2022-08-02T11:46:39;100567.63;;;22.24;42.16
59272;BME280;45043;51.068;7.026;2022-08-02T11:49:40;100559.78;;;22.23;42.36
59272;BME280;45043;51.068;7.026;2022-08-02T11:52:43;100566.28;;;22.22;42.00
59272;BME280;45043;51.068;7.026;2022-08-02T11:55:45;100571.44;;;22.23;41.91
59272;BME280;45043;51.068;7.026;2022-08-02T11:59:06;100568.19;;;22.16;42.34
59272;BME280;45043;51.068;7.026;2022-08-02T12:02:08;100554.63;;;22.21;41.98
59272;BME280;45043;51.068;7.026;2022-08-02T12:05:15;100566.56;;;22.20;41.93
59272;BME280;45043;51.068;7.026;2022-08-02T12:08:17;100555.72;;;22.20;42.12
59272;BME280;45043;51.068;7.026;2022-08-02T12:11:18;100563.84;;;22.20;42.01
59272;BME280;45043;51.068;7.026;2022-08-02T12:14:19;100560.34;;;22.20;41.86
59272;BME280;45043;51.068;7.026;2022-08-02T12:17:27;100559.25;;;22.21;42.07
59272;BME280;45043;51.068;7.026;2022-08-02T12:20:46;100564.94;;;22.19;41.62
59272;BME280;45043;51.068;7.026;2022-08-02T12:23:47;100561.13;;;22.20;41.45
59272;BME280;45043;51.068;7.026;2022-08-02T12:26:47;100553.03;;;22.20;41.82
59272;BME280;45043;51.068;7.026;2022-08-02T12:29:58;100548.69;;;22.19;41.59
59272;BME280;45043;51.068;7.026;2022-08-02T12:33:09;100552.50;;;22.18;41.78
59272;BME280;45043;51.068;7.026;2022-08-02T12:36:16;100554.13;;;22.19;41.70
59272;BME280;45043;51.068;7.026;2022-08-02T12:39:17;100554.13;;;22.19;41.44
59272;BME280;45043;51.068;7.026;2022-08-02T12:42:17;100550.84;;;22.17;41.54
59272;BME280;45043;51.068;7.026;2022-08-02T12:45:18;100550.31;;;22.20;41.96
59272;BME280;45043;51.068;7.026;2022-08-02T12:48:37;100548.16;;;22.17;41.18
59272;BME280;45043;51.068;7.026;2022-08-02T12:51:39;100553.31;;;22.19;41.78
59272;BME280;45043;51.068;7.026;2022-08-02T12:54:40;100554.13;;;22.19;41.42
59272;BME280;45043;51.068;7.026;2022-08-02T12:57:56;100537.63;;;22.16;41.65
59272;BME280;45043;51.068;7.026;2022-08-02T13:00:59;100533.28;;;22.20;41.35
59272;BME280;45043;51.068;7.026;2022-08-02T13:04:00;100533.28;;;22.20;41.52
59272;BME280;45043;51.068;7.026;2022-08-02T13:07:03;100526.78;;;22.21;41.32
59272;BME280;45043;51.068;7.026;2022-08-02T13:10:04;100529.47;;;22.21;41.19
59272;BME280;45043;51.068;7.026;2022-08-02T13:13:05;100520.03;;;22.18;41.20
59272;BME280;45043;51.068;7.026;2022-08-02T13:16:06;100523.25;;;22.20;41.14
59272;BME280;45043;51.068;7.026;2022-08-02T13:19:08;100519.47;;;22.21;41.38
59272;BME280;45043;51.068;7.026;2022-08-02T13:22:08;100515.44;;;22.19;41.49
59272;BME280;45043;51.068;7.026;2022-08-02T13:25:08;100524.88;;;22.21;41.10
59272;BME280;45043;51.068;7.026;2022-08-02T13:28:09;100518.66;;;22.21;41.31
59272;BME280;45043;51.068;7.026;2022-08-02T13:31:10;100526.50;;;22.22;41.19
59272;BME280;45043;51.068;7.026;2022-08-02T13:34:11;100517.84;;;22.20;41.37
59272;BME280;45043;51.068;7.026;2022-08-02T13:37:13;100515.16;;;22.25;41.19
59272;BME280;45043;51.068;7.026;2022-08-02T13:40:15;100497.81;;;22.37;38.72
59272;BME280;45043;51.068;7.026;2022-08-02T13:43:16;100486.81;;;23.37;35.35
59272;BME280;45043;51.068;7.026;2022-08-02T13:46:16;100484.09;;;24.30;33.92
59272;BME280;45043;51.068;7.026;2022-08-02T13:49:17;100494.91;;;25.02;32.35
59272;BME280;45043;51.068;7.026;2022-08-02T13:52:17;100478.97;;;25.52;32.01
59272;BME280;45043;51.068;7.026;2022-08-02T13:55:19;100484.63;;;25.88;30.99
59272;BME280;45043;51.068;7.026;2022-08-02T13:58:19;100472.06;;;26.20;30.12
59272;BME280;45043;51.068;7.026;2022-08-02T14:01:20;100463.72;;;26.44;29.51
59272;BME280;45043;51.068;7.026;2022-08-02T14:04:20;100470.63;;;26.77;29.52
59272;BME280;45043;51.068;7.026;2022-08-02T14:07:21;100476.34;;;27.03;28.90
59272;BME280;45043;51.068;7.026;2022-08-02T14:10:22;100485.19;;;27.23;28.58
59272;BME280;45043;51.068;7.026;2022-08-02T14:13:25;100461.03;;;27.30;28.47
59272;BME280;45043;51.068;7.026;2022-08-02T14:16:25;100457.97;;;27.32;28.28
59272;BME280;45043;51.068;7.026;2022-08-02T14:19:26;100465.22;;;27.36;28.19
59272;BME280;45043;51.068;7.026;2022-08-02T14:22:26;100466.94;;;27.46;28.09
59272;BME280;45043;51.068;7.026;2022-08-02T14:25:28;100450.59;;;27.55;27.78
59272;BME280;45043;51.068;7.026;2022-08-02T14:28:29;100443.28;;;27.64;27.95
59272;BME280;45043;51.068;7.026;2022-08-02T14:31:29;100463.19;;;27.64;27.60
59272;BME280;45043;51.068;7.026;2022-08-02T14:34:29;100460.47;;;27.64;28.23
59272;BME280;45043;51.068;7.026;2022-08-02T14:37:30;100454.56;;;27.71;27.85
59272;BME280;45043;51.068;7.026;2022-08-02T14:40:32;100451.34;;;27.69;27.80
59272;BME280;45043;51.068;7.026;2022-08-02T14:43:33;100450.03;;;27.66;27.57
59272;BME280;45043;51.068;7.026;2022-08-02T14:46:51;100441.03;;;27.66;27.19
59272;BME280;45043;51.068;7.026;2022-08-02T14:49:52;100434.34;;;27.72;27.92
59272;BME280;45043;51.068;7.026;2022-08-02T14:52:52;100447.84;;;27.77;27.31
59272;BME280;45043;51.068;7.026;2022-08-02T14:55:53;100437.28;;;27.84;27.70
59272;BME280;45043;51.068;7.026;2022-08-02T14:58:53;100437.19;;;27.67;27.75
59272;BME280;45043;51.068;7.026;2022-08-02T15:01:54;100436.84;;;27.60;27.54
59272;BME280;45043;51.068;7.026;2022-08-02T15:04:55;100436.50;;;27.52;27.58
59272;BME280;45043;51.068;7.026;2022-08-02T15:07:55;100417.81;;;27.46;27.60
59272;BME280;45043;51.068;7.026;2022-08-02T15:10:55;100413.53;;;27.31;27.49
59272;BME280;45043;51.068;7.026;2022-08-02T15:13:56;100418.78;;;27.41;27.42
59272;BME280;45043;51.068;7.026;2022-08-02T15:16:58;100414.66;;;27.52;27.33
59272;BME280;45043;51.068;7.026;2022-08-02T15:19:59;100421.28;;;27.60;27.18
59272;BME280;45043;51.068;7.026;2022-08-02T15:22:59;100417.09;;;27.63;27.60
59272;BME280;45043;51.068;7.026;2022-08-02T15:26:01;100404.19;;;27.46;27.43
59272;BME280;45043;51.068;7.026;2022-08-02T15:29:02;100422.84;;;27.30;27.93
59272;BME280;45043;51.068;7.026;2022-08-02T15:32:02;100421.16;;;27.20;27.71
59272;BME280;45043;51.068;7.026;2022-08-02T15:35:03;100415.84;;;27.15;27.89
59272;BME280;45043;51.068;7.026;2022-08-02T15:38:05;100415.66;;;27.12;28.25
59272;BME280;45043;51.068;7.026;2022-08-02T15:41:05;100403.47;;;27.18;27.67
59272;BME280;45043;51.068;7.026;2022-08-02T15:44:07;100411.47;;;27.37;27.60
59272;BME280;45043;51.068;7.026;2022-08-02T15:47:08;100414.28;;;27.45;27.60
59272;BME280;45043;51.068;7.026;2022-08-02T15:50:10;100409.03;;;27.49;27.68
59272;BME280;45043;51.068;7.026;2022-08-02T15:53:11;100402.88;;;27.43;27.90
59272;BME280;45043;51.068;7.026;2022-08-02T15:56:11;100398.94;;;27.36;28.03
59272;BME280;45043;51.068;7.026;2022-08-02T15:59:12;100407.94;;;27.14;27.84
59272;BME280;45043;51.068;7.026;2022-08-02T16:02:13;100416.13;;;27.14;28.08
59272;BME280;45043;51.068;7.026;2022-08-02T16:05:15;100403.09;;;27.11;28.32
59272;BME280;45043;51.068;7.026;2022-08-02T16:08:17;100397.03;;;27.14;28.11
59272;BME280;45043;51.068;7.026;2022-08-02T16:11:17;100402.25;;;27.24;28.25
59272;BME280;45043;51.068;7.026;2022-08-02T16:14:18;100394.25;;;27.27;28.33
59272;BME280;45043;51.068;7.026;2022-08-02T16:17:18;100386.25;;;27.31;28.11
59272;BME280;45043;51.068;7.026;2022-08-02T16:20:19;100378.13;;;27.40;27.65
59272;BME280;45043;51.068;7.026;2022-08-02T16:23:19;100388.84;;;27.59;28.02
59272;BME280;45043;51.068;7.026;2022-08-02T16:26:20;100388.34;;;27.57;27.67